sensor_id;sensor_type;location;lat;lon;timestamp;temperature;humidity
23873;DHT22;42884;50.718;4.630;2023-02-18T00:01:25;11.70;99.90
23873;DHT22;42884;50.718;4.630;2023-02-18T00:03:50;11.70;99.90
23873;DHT22;42884;50.718;4.630;2023-02-18T00:06:17;11.70;99.90
23873;DHT22;42884;50.718;4.630;2023-02-18T00:08:44;11.60;99.90
23873;DHT22;42884;50.718;4.630;2023-02-18T00:11:09;11.60;99.90
23873;DHT22;42884;50.718;4.630;2023-02-18T00:13:35;11.60;99.90
23873;DHT22;42884;50.718;4.630;2023-02-18T00:16:04;11.60;99.90
23873;DHT22;42884;50.718;4.630;2023-02-18T00:18:30;11.60;99.90
23873;DHT22;42884;50.718;4.630;2023-02-18T00:20:56;11.60;99.90
23873;DHT22;42884;50.718;4.630;2023-02-18T00:23:21;11.60;99.90
23873;DHT22;42884;50.718;4.630;2023-02-18T00:25:47;11.70;99.90
23873;DHT22;42884;50.718;4.630;2023-02-18T00:28:13;11.70;99.90
23873;DHT22;42884;50.718;4.630;2023-02-18T00:30:39;11.70;99.90
23873;DHT22;42884;50.718;4.630;2023-02-18T00:33:05;11.70;99.90
23873;DHT22;42884;50.718;4.630;2023-02-18T00:35:31;11.60;99.90
23873;DHT22;42884;50.718;4.630;2023-02-18T00:37:56;11.60;99.90
23873;DHT22;42884;50.718;4.630;2023-02-18T00:40:22;11.60;99.90
23873;DHT22;42884;50.718;4.630;2023-02-18T00:42:47;11.70;99.90
23873;DHT22;42884;50.718;4.630;2023-02-18T00:45:13;11.50;99.90
23873;DHT22;42884;50.718;4.630;2023-02-18T00:47:39;11.50;99.90
23873;DHT22;42884;50.718;4.630;2023-02-18T00:50:04;11.50;99.90
23873;DHT22;42884;50.718;4.630;2023-02-18T00:52:30;11.60;99.90
23873;DHT22;42884;50.718;4.630;2023-02-18T00:54:56;11.60;99.90
23873;DHT22;42884;50.718;4.630;2023-02-18T00:57:21;11.50;99.90
23873;DHT22;42884;50.718;4.630;2023-02-18T00:59:47;11.60;99.90
23873;DHT22;42884;50.718;4.630;2023-02-18T01:02:12;11.60;99.90
23873;DHT22;42884;50.718;4.630;2023-02-18T01:04:38;11.70;99.90
23873;DHT22;42884;50.718;4.630;2023-02-18T01:07:03;11.70;99.90
23873;DHT22;42884;50.718;4.630;2023-02-18T01:09:29;11.80;99.90
23873;DHT22;42884;50.718;4.630;2023-02-18T01:11:55;11.70;99.90
23873;DHT22;42884;50.718;4.630;2023-02-18T01:14:20;11.60;99.90
23873;DHT22;42884;50.718;4.630;2023-02-18T01:16:46;11.60;99.90
23873;DHT22;42884;50.718;4.630;2023-02-18T01:19:11;11.70;99.90
23873;DHT22;42884;50.718;4.630;2023-02-18T01:21:37;11.70;99.90
23873;DHT22;42884;50.718;4.630;2023-02-18T01:24:03;11.70;99.90
23873;DHT22;42884;50.718;4.630;2023-02-18T01:26:28;11.50;99.90
23873;DHT22;42884;50.718;4.630;2023-02-18T01:28:54;11.60;99.90
23873;DHT22;42884;50.718;4.630;2023-02-18T01:31:19;11.70;99.90
23873;DHT22;42884;50.718;4.630;2023-02-18T01:33:45;11.70;99.90
23873;DHT22;42884;50.718;4.630;2023-02-18T01:36:11;11.70;99.90
23873;DHT22;42884;50.718;4.630;2023-02-18T01:38:37;11.70;99.90
23873;DHT22;42884;50.718;4.630;2023-02-18T01:41:02;11.60;99.90
23873;DHT22;42884;50.718;4.630;2023-02-18T01:43:28;11.60;99.90
23873;DHT22;42884;50.718;4.630;2023-02-18T01:48:30;11.60;99.90
23873;DHT22;42884;50.718;4.630;2023-02-18T01:53:36;11.60;99.90
23873;DHT22;42884;50.718;4.630;2023-02-18T01:56:04;11.70;99.90
23873;DHT22;42884;50.718;4.630;2023-02-18T01:58:31;11.70;99.90
23873;DHT22;42884;50.718;4.630;2023-02-18T02:00:57;11.60;99.90
23873;DHT22;42884;50.718;4.630;2023-02-18T02:03:23;11.50;99.90
23873;DHT22;42884;50.718;4.630;2023-02-18T02:05:48;11.60;99.90
23873;DHT22;42884;50.718;4.630;2023-02-18T02:08:14;11.50;99.90
23873;DHT22;42884;50.718;4.630;2023-02-18T02:10:48;11.50;99.90
23873;DHT22;42884;50.718;4.630;2023-02-18T02:13:20;11.50;99.90
23873;DHT22;42884;50.718;4.630;2023-02-18T02:15:54;11.50;99.90
23873;DHT22;42884;50.718;4.630;2023-02-18T02:18:26;11.40;99.90
23873;DHT22;42884;50.718;4.630;2023-02-18T02:23:40;11.30;99.90
23873;DHT22;42884;50.718;4.630;2023-02-18T02:29:57;11.50;99.90
23873;DHT22;42884;50.718;4.630;2023-02-18T02:34:30;11.30;99.90
23873;DHT22;42884;50.718;4.630;2023-02-18T02:44:42;11.30;99.90
23873;DHT22;42884;50.718;4.630;2023-02-18T02:47:20;11.30;99.90
23873;DHT22;42884;50.718;4.630;2023-02-18T02:52:23;11.20;99.90
23873;DHT22;42884;50.718;4.630;2023-02-18T02:54:50;11.20;99.90
23873;DHT22;42884;50.718;4.630;2023-02-18T02:59:43;11.30;99.90
23873;DHT22;42884;50.718;4.630;2023-02-18T03:10:16;11.20;99.90
23873;DHT22;42884;50.718;4.630;2023-02-18T03:15:48;11.20;99.90
23873;DHT22;42884;50.718;4.630;2023-02-18T03:20:50;11.30;99.90
23873;DHT22;42884;50.718;4.630;2023-02-18T03:23:20;11.30;99.90
23873;DHT22;42884;50.718;4.630;2023-02-18T03:25:47;11.40;99.90
23873;DHT22;42884;50.718;4.630;2023-02-18T03:28:14;11.30;99.90
23873;DHT22;42884;50.718;4.630;2023-02-18T03:30:42;11.30;99.90
23873;DHT22;42884;50.718;4.630;2023-02-18T03:33:12;11.20;99.90
23873;DHT22;42884;50.718;4.630;2023-02-18T03:35:38;11.20;99.90
23873;DHT22;42884;50.718;4.630;2023-02-18T03:38:09;11.10;99.90
23873;DHT22;42884;50.718;4.630;2023-02-18T03:40:36;11.00;99.90
23873;DHT22;42884;50.718;4.630;2023-02-18T03:43:02;11.10;99.90
23873;DHT22;42884;50.718;4.630;2023-02-18T03:45:28;11.20;99.90
23873;DHT22;42884;50.718;4.630;2023-02-18T03:47:53;11.20;99.90
23873;DHT22;42884;50.718;4.630;2023-02-18T03:50:19;11.30;99.90
23873;DHT22;42884;50.718;4.630;2023-02-18T03:52:45;11.30;99.90
23873;DHT22;42884;50.718;4.630;2023-02-18T03:55:10;11.30;99.90
23873;DHT22;42884;50.718;4.630;2023-02-18T03:57:36;11.20;99.90
23873;DHT22;42884;50.718;4.630;2023-02-18T04:00:02;11.20;99.90
23873;DHT22;42884;50.718;4.630;2023-02-18T04:02:29;11.20;99.90
23873;DHT22;42884;50.718;4.630;2023-02-18T04:04:55;11.20;99.90
23873;DHT22;42884;50.718;4.630;2023-02-18T04:07:20;11.10;99.90
23873;DHT22;42884;50.718;4.630;2023-02-18T04:09:46;11.10;99.90
23873;DHT22;42884;50.718;4.630;2023-02-18T04:12:12;11.20;99.90
23873;DHT22;42884;50.718;4.630;2023-02-18T04:14:37;11.20;99.90
23873;DHT22;42884;50.718;4.630;2023-02-18T04:17:03;11.20;99.90
23873;DHT22;42884;50.718;4.630;2023-02-18T04:19:28;11.20;99.90
23873;DHT22;42884;50.718;4.630;2023-02-18T04:21:54;11.20;99.90
23873;DHT22;42884;50.718;4.630;2023-02-18T04:24:20;11.00;99.90
23873;DHT22;42884;50.718;4.630;2023-02-18T04:26:45;11.00;99.90
23873;DHT22;42884;50.718;4.630;2023-02-18T04:29:11;11.00;99.90
23873;DHT22;42884;50.718;4.630;2023-02-18T04:31:36;11.00;99.90
23873;DHT22;42884;50.718;4.630;2023-02-18T04:34:02;11.00;99.90
23873;DHT22;42884;50.718;4.630;2023-02-18T04:36:28;11.00;99.90
23873;DHT22;42884;50.718;4.630;2023-02-18T04:38:53;11.00;99.90
23873;DHT22;42884;50.718;4.630;2023-02-18T04:41:19;11.00;99.90
23873;DHT22;42884;50.718;4.630;2023-02-18T04:43:44;11.00;99.90
23873;DHT22;42884;50.718;4.630;2023-02-18T04:46:10;11.00;99.90
23873;DHT22;42884;50.718;4.630;2023-02-18T04:48:36;11.10;99.90
23873;DHT22;42884;50.718;4.630;2023-02-18T04:51:01;11.10;99.90
23873;DHT22;42884;50.718;4.630;2023-02-18T04:53:27;11.00;99.90
23873;DHT22;42884;50.718;4.630;2023-02-18T04:55:53;11.10;99.90
23873;DHT22;42884;50.718;4.630;2023-02-18T04:58:19;11.10;99.90
23873;DHT22;42884;50.718;4.630;2023-02-18T05:00:44;11.00;99.90
23873;DHT22;42884;50.718;4.630;2023-02-18T05:03:10;11.10;99.90
23873;DHT22;42884;50.718;4.630;2023-02-18T05:05:35;11.20;99.90
23873;DHT22;42884;50.718;4.630;2023-02-18T05:08:02;11.10;99.90
23873;DHT22;42884;50.718;4.630;2023-02-18T05:10:27;11.10;99.90
23873;DHT22;42884;50.718;4.630;2023-02-18T05:12:53;11.10;99.90
23873;DHT22;42884;50.718;4.630;2023-02-18T05:15:18;11.10;99.90
23873;DHT22;42884;50.718;4.630;2023-02-18T05:17:44;11.00;99.90
23873;DHT22;42884;50.718;4.630;2023-02-18T05:20:10;11.00;99.90
23873;DHT22;42884;50.718;4.630;2023-02-18T05:22:35;10.90;99.90
23873;DHT22;42884;50.718;4.630;2023-02-18T05:25:01;11.00;99.90
23873;DHT22;42884;50.718;4.630;2023-02-18T05:27:27;10.90;99.90
23873;DHT22;42884;50.718;4.630;2023-02-18T05:29:52;10.90;99.90
23873;DHT22;42884;50.718;4.630;2023-02-18T05:32:18;11.00;99.90
23873;DHT22;42884;50.718;4.630;2023-02-18T05:34:43;10.90;99.90
23873;DHT22;42884;50.718;4.630;2023-02-18T05:37:09;11.00;99.90
23873;DHT22;42884;50.718;4.630;2023-02-18T05:39:35;10.90;99.90
23873;DHT22;42884;50.718;4.630;2023-02-18T05:42:00;10.90;99.90
23873;DHT22;42884;50.718;4.630;2023-02-18T05:44:26;10.90;99.90
23873;DHT22;42884;50.718;4.630;2023-02-18T05:46:55;10.80;99.90
23873;DHT22;42884;50.718;4.630;2023-02-18T05:49:20;10.80;99.90
23873;DHT22;42884;50.718;4.630;2023-02-18T05:51:46;10.80;99.90
23873;DHT22;42884;50.718;4.630;2023-02-18T05:54:12;10.80;99.90
23873;DHT22;42884;50.718;4.630;2023-02-18T05:56:37;10.90;99.90
23873;DHT22;42884;50.718;4.630;2023-02-18T05:59:03;10.90;99.90
23873;DHT22;42884;50.718;4.630;2023-02-18T06:01:28;10.80;99.90
23873;DHT22;42884;50.718;4.630;2023-02-18T06:03:54;10.80;99.90
23873;DHT22;42884;50.718;4.630;2023-02-18T06:06:20;10.70;99.90
23873;DHT22;42884;50.718;4.630;2023-02-18T06:08:45;10.70;99.90
23873;DHT22;42884;50.718;4.630;2023-02-18T06:11:11;10.60;99.90
23873;DHT22;42884;50.718;4.630;2023-02-18T06:13:36;10.70;99.90
23873;DHT22;42884;50.718;4.630;2023-02-18T06:16:02;10.80;99.90
23873;DHT22;42884;50.718;4.630;2023-02-18T06:18:28;10.80;99.90
23873;DHT22;42884;50.718;4.630;2023-02-18T06:20:53;10.80;99.90
23873;DHT22;42884;50.718;4.630;2023-02-18T06:23:19;10.80;99.90
23873;DHT22;42884;50.718;4.630;2023-02-18T06:25:46;10.80;99.90
23873;DHT22;42884;50.718;4.630;2023-02-18T06:28:12;10.90;99.90
23873;DHT22;42884;50.718;4.630;2023-02-18T06:30:38;11.00;99.90
23873;DHT22;42884;50.718;4.630;2023-02-18T06:33:03;11.00;99.90
23873;DHT22;42884;50.718;4.630;2023-02-18T06:35:29;10.90;99.90
23873;DHT22;42884;50.718;4.630;2023-02-18T06:37:55;10.90;99.90
23873;DHT22;42884;50.718;4.630;2023-02-18T06:40:20;10.80;99.90
23873;DHT22;42884;50.718;4.630;2023-02-18T06:42:46;10.90;99.90
23873;DHT22;42884;50.718;4.630;2023-02-18T06:45:12;11.00;99.90
23873;DHT22;42884;50.718;4.630;2023-02-18T06:47:37;11.00;99.90
23873;DHT22;42884;50.718;4.630;2023-02-18T06:50:03;10.90;99.90
23873;DHT22;42884;50.718;4.630;2023-02-18T06:52:29;10.80;99.90
23873;DHT22;42884;50.718;4.630;2023-02-18T06:54:57;10.90;99.90
23873;DHT22;42884;50.718;4.630;2023-02-18T06:57:23;10.90;99.90
23873;DHT22;42884;50.718;4.630;2023-02-18T06:59:48;10.90;99.90
23873;DHT22;42884;50.718;4.630;2023-02-18T07:02:14;10.90;99.90
23873;DHT22;42884;50.718;4.630;2023-02-18T07:04:40;10.90;99.90
23873;DHT22;42884;50.718;4.630;2023-02-18T07:07:05;10.90;99.90
23873;DHT22;42884;50.718;4.630;2023-02-18T07:09:31;11.00;99.90
23873;DHT22;42884;50.718;4.630;2023-02-18T07:11:56;11.00;99.90
23873;DHT22;42884;50.718;4.630;2023-02-18T07:14:22;11.10;99.90
23873;DHT22;42884;50.718;4.630;2023-02-18T07:16:49;10.90;99.90
23873;DHT22;42884;50.718;4.630;2023-02-18T07:19:14;10.80;99.90
23873;DHT22;42884;50.718;4.630;2023-02-18T07:21:41;10.80;99.90
23873;DHT22;42884;50.718;4.630;2023-02-18T07:24:06;10.90;99.90
23873;DHT22;42884;50.718;4.630;2023-02-18T07:26:32;11.00;99.90
23873;DHT22;42884;50.718;4.630;2023-02-18T07:28:58;11.00;99.90
23873;DHT22;42884;50.718;4.630;2023-02-18T07:31:23;10.90;99.90
23873;DHT22;42884;50.718;4.630;2023-02-18T07:33:49;11.00;99.90
23873;DHT22;42884;50.718;4.630;2023-02-18T07:36:14;11.00;99.90
23873;DHT22;42884;50.718;4.630;2023-02-18T07:38:40;11.00;99.90
23873;DHT22;42884;50.718;4.630;2023-02-18T07:41:05;10.90;99.90
23873;DHT22;42884;50.718;4.630;2023-02-18T07:43:31;10.80;99.90
23873;DHT22;42884;50.718;4.630;2023-02-18T07:45:57;10.90;99.90
23873;DHT22;42884;50.718;4.630;2023-02-18T07:48:22;10.90;99.90
23873;DHT22;42884;50.718;4.630;2023-02-18T07:50:48;10.80;99.90
23873;DHT22;42884;50.718;4.630;2023-02-18T07:53:14;10.80;99.90
23873;DHT22;42884;50.718;4.630;2023-02-18T07:55:40;10.90;99.90
23873;DHT22;42884;50.718;4.630;2023-02-18T07:58:19;11.00;99.90
23873;DHT22;42884;50.718;4.630;2023-02-18T08:00:44;11.10;99.90
23873;DHT22;42884;50.718;4.630;2023-02-18T08:03:12;11.10;99.90
23873;DHT22;42884;50.718;4.630;2023-02-18T08:05:38;11.10;99.90
23873;DHT22;42884;50.718;4.630;2023-02-18T08:08:04;11.10;99.90
23873;DHT22;42884;50.718;4.630;2023-02-18T08:10:29;11.10;99.90
23873;DHT22;42884;50.718;4.630;2023-02-18T08:12:55;11.20;99.90
23873;DHT22;42884;50.718;4.630;2023-02-18T08:15:20;11.40;99.90
23873;DHT22;42884;50.718;4.630;2023-02-18T08:17:46;11.30;99.90
23873;DHT22;42884;50.718;4.630;2023-02-18T08:20:11;11.40;99.90
23873;DHT22;42884;50.718;4.630;2023-02-18T08:22:37;11.40;99.90
23873;DHT22;42884;50.718;4.630;2023-02-18T08:25:03;11.40;99.90
23873;DHT22;42884;50.718;4.630;2023-02-18T08:27:29;11.40;99.90
23873;DHT22;42884;50.718;4.630;2023-02-18T08:29:54;11.50;99.90
23873;DHT22;42884;50.718;4.630;2023-02-18T08:32:20;11.50;99.90
23873;DHT22;42884;50.718;4.630;2023-02-18T08:34:46;11.60;99.90
23873;DHT22;42884;50.718;4.630;2023-02-18T08:37:11;11.50;99.90
23873;DHT22;42884;50.718;4.630;2023-02-18T08:39:37;11.40;99.90
23873;DHT22;42884;50.718;4.630;2023-02-18T08:42:03;11.40;99.90
23873;DHT22;42884;50.718;4.630;2023-02-18T08:44:29;11.40;99.90
23873;DHT22;42884;50.718;4.630;2023-02-18T08:46:55;11.30;99.90
23873;DHT22;42884;50.718;4.630;2023-02-18T08:49:20;11.30;99.90
23873;DHT22;42884;50.718;4.630;2023-02-18T08:51:48;11.30;99.90
23873;DHT22;42884;50.718;4.630;2023-02-18T08:54:14;11.40;99.90
23873;DHT22;42884;50.718;4.630;2023-02-18T08:56:40;11.30;99.90
23873;DHT22;42884;50.718;4.630;2023-02-18T08:59:06;11.40;99.90
23873;DHT22;42884;50.718;4.630;2023-02-18T09:01:31;11.50;99.90
23873;DHT22;42884;50.718;4.630;2023-02-18T09:03:57;11.50;99.90
23873;DHT22;42884;50.718;4.630;2023-02-18T09:06:23;11.40;99.90
23873;DHT22;42884;50.718;4.630;2023-02-18T09:08:48;11.40;99.90
23873;DHT22;42884;50.718;4.630;2023-02-18T09:11:14;11.40;99.90
23873;DHT22;42884;50.718;4.630;2023-02-18T09:13:40;11.40;99.90
23873;DHT22;42884;50.718;4.630;2023-02-18T09:16:07;11.40;99.90
23873;DHT22;42884;50.718;4.630;2023-02-18T09:18:33;11.40;99.90
23873;DHT22;42884;50.718;4.630;2023-02-18T09:21:02;11.50;99.90
23873;DHT22;42884;50.718;4.630;2023-02-18T09:23:29;11.50;99.90
23873;DHT22;42884;50.718;4.630;2023-02-18T09:25:56;11.50;99.90
23873;DHT22;42884;50.718;4.630;2023-02-18T09:28:21;11.40;99.90
23873;DHT22;42884;50.718;4.630;2023-02-18T09:30:47;11.40;99.90
23873;DHT22;42884;50.718;4.630;2023-02-18T09:33:13;11.50;99.90
23873;DHT22;42884;50.718;4.630;2023-02-18T09:35:42;11.40;99.90
23873;DHT22;42884;50.718;4.630;2023-02-18T09:38:08;11.50;99.90
23873;DHT22;42884;50.718;4.630;2023-02-18T09:40:34;11.50;99.90
23873;DHT22;42884;50.718;4.630;2023-02-18T09:43:01;11.40;99.90
23873;DHT22;42884;50.718;4.630;2023-02-18T09:45:27;11.40;99.90
23873;DHT22;42884;50.718;4.630;2023-02-18T09:47:53;11.50;99.90
23873;DHT22;42884;50.718;4.630;2023-02-18T09:50:20;11.50;99.90
23873;DHT22;42884;50.718;4.630;2023-02-18T09:52:46;11.40;99.90
23873;DHT22;42884;50.718;4.630;2023-02-18T09:57:50;11.40;99.90
23873;DHT22;42884;50.718;4.630;2023-02-18T10:01:00;11.40;99.90
23873;DHT22;42884;50.718;4.630;2023-02-18T10:03:07;11.40;99.90
23873;DHT22;42884;50.718;4.630;2023-02-18T10:05:36;11.40;99.90
23873;DHT22;42884;50.718;4.630;2023-02-18T10:08:05;11.40;99.90
23873;DHT22;42884;50.718;4.630;2023-02-18T10:10:42;11.40;99.90
23873;DHT22;42884;50.718;4.630;2023-02-18T10:13:12;11.50;99.90
23873;DHT22;42884;50.718;4.630;2023-02-18T10:15:38;11.50;99.90
23873;DHT22;42884;50.718;4.630;2023-02-18T10:18:04;11.50;99.90
23873;DHT22;42884;50.718;4.630;2023-02-18T10:20:31;11.50;99.90
23873;DHT22;42884;50.718;4.630;2023-02-18T10:22:57;11.50;99.90
23873;DHT22;42884;50.718;4.630;2023-02-18T10:25:25;11.50;99.90
23873;DHT22;42884;50.718;4.630;2023-02-18T10:27:51;11.50;99.90
23873;DHT22;42884;50.718;4.630;2023-02-18T10:32:45;11.50;99.90
23873;DHT22;42884;50.718;4.630;2023-02-18T10:35:16;11.60;99.90
23873;DHT22;42884;50.718;4.630;2023-02-18T10:45:46;11.60;99.90
23873;DHT22;42884;50.718;4.630;2023-02-18T10:48:17;11.70;99.90
23873;DHT22;42884;50.718;4.630;2023-02-18T10:50:46;11.70;99.90
23873;DHT22;42884;50.718;4.630;2023-02-18T10:55:39;11.70;99.90
23873;DHT22;42884;50.718;4.630;2023-02-18T11:00:49;11.80;99.90
23873;DHT22;42884;50.718;4.630;2023-02-18T11:03:16;11.90;99.90
23873;DHT22;42884;50.718;4.630;2023-02-18T11:05:43;12.00;99.90
23873;DHT22;42884;50.718;4.630;2023-02-18T11:08:10;12.00;99.90
23873;DHT22;42884;50.718;4.630;2023-02-18T11:10:39;11.90;99.90
23873;DHT22;42884;50.718;4.630;2023-02-18T11:13:07;11.90;99.90
23873;DHT22;42884;50.718;4.630;2023-02-18T11:15:33;12.00;99.90
23873;DHT22;42884;50.718;4.630;2023-02-18T11:23:49;12.20;99.90
23873;DHT22;42884;50.718;4.630;2023-02-18T11:26:15;12.20;99.90
23873;DHT22;42884;50.718;4.630;2023-02-18T11:28:43;12.20;99.90
23873;DHT22;42884;50.718;4.630;2023-02-18T11:31:10;12.30;99.90
23873;DHT22;42884;50.718;4.630;2023-02-18T11:33:43;12.20;99.90
23873;DHT22;42884;50.718;4.630;2023-02-18T11:36:24;12.20;99.90
23873;DHT22;42884;50.718;4.630;2023-02-18T11:38:54;12.10;99.90
23873;DHT22;42884;50.718;4.630;2023-02-18T11:41:37;12.20;99.90
23873;DHT22;42884;50.718;4.630;2023-02-18T11:44:05;12.20;99.90
23873;DHT22;42884;50.718;4.630;2023-02-18T11:46:31;12.20;99.90
23873;DHT22;42884;50.718;4.630;2023-02-18T11:49:09;12.20;99.90
23873;DHT22;42884;50.718;4.630;2023-02-18T11:51:35;12.10;99.90
23873;DHT22;42884;50.718;4.630;2023-02-18T11:54:21;12.20;99.90
23873;DHT22;42884;50.718;4.630;2023-02-18T11:59:42;12.10;99.90
23873;DHT22;42884;50.718;4.630;2023-02-18T12:04:39;12.20;99.90
23873;DHT22;42884;50.718;4.630;2023-02-18T12:09:36;12.20;99.90
23873;DHT22;42884;50.718;4.630;2023-02-18T12:12:07;12.20;99.90
23873;DHT22;42884;50.718;4.630;2023-02-18T12:14:36;12.30;99.90
23873;DHT22;42884;50.718;4.630;2023-02-18T12:19:46;12.30;99.90
23873;DHT22;42884;50.718;4.630;2023-02-18T12:22:17;12.40;99.90
23873;DHT22;42884;50.718;4.630;2023-02-18T12:29:51;12.40;99.90
23873;DHT22;42884;50.718;4.630;2023-02-18T12:32:23;12.50;99.90
23873;DHT22;42884;50.718;4.630;2023-02-18T12:34:56;12.50;99.90
23873;DHT22;42884;50.718;4.630;2023-02-18T12:48:01;12.70;99.90
23873;DHT22;42884;50.718;4.630;2023-02-18T12:50:47;12.70;99.90
23873;DHT22;42884;50.718;4.630;2023-02-18T12:54:04;12.80;99.90
23873;DHT22;42884;50.718;4.630;2023-02-18T13:01:20;12.70;99.90
23873;DHT22;42884;50.718;4.630;2023-02-18T13:06:25;12.60;99.90
23873;DHT22;42884;50.718;4.630;2023-02-18T13:13:47;12.50;99.90
23873;DHT22;42884;50.718;4.630;2023-02-18T13:16:16;12.50;99.90
23873;DHT22;42884;50.718;4.630;2023-02-18T13:21:13;12.40;99.90
23873;DHT22;42884;50.718;4.630;2023-02-18T13:23:43;12.50;99.90
23873;DHT22;42884;50.718;4.630;2023-02-18T13:26:10;12.60;99.90
23873;DHT22;42884;50.718;4.630;2023-02-18T13:28:42;12.50;99.90
23873;DHT22;42884;50.718;4.630;2023-02-18T13:33:46;12.50;99.90
23873;DHT22;42884;50.718;4.630;2023-02-18T13:39:02;12.30;99.90
23873;DHT22;42884;50.718;4.630;2023-02-18T13:41:28;12.30;99.90
23873;DHT22;42884;50.718;4.630;2023-02-18T13:43:58;12.20;99.90
23873;DHT22;42884;50.718;4.630;2023-02-18T13:46:24;12.20;99.90
23873;DHT22;42884;50.718;4.630;2023-02-18T13:51:31;12.20;99.90
23873;DHT22;42884;50.718;4.630;2023-02-18T13:54:07;12.20;99.90
23873;DHT22;42884;50.718;4.630;2023-02-18T13:56:46;12.40;99.90
23873;DHT22;42884;50.718;4.630;2023-02-18T14:01:42;12.30;99.90
23873;DHT22;42884;50.718;4.630;2023-02-18T14:09:42;12.20;99.90
23873;DHT22;42884;50.718;4.630;2023-02-18T14:14:52;12.10;99.90
23873;DHT22;42884;50.718;4.630;2023-02-18T14:23:00;12.10;99.90
23873;DHT22;42884;50.718;4.630;2023-02-18T14:27:32;12.10;99.90
23873;DHT22;42884;50.718;4.630;2023-02-18T14:30:05;12.10;99.90
23873;DHT22;42884;50.718;4.630;2023-02-18T14:32:32;12.00;99.90
23873;DHT22;42884;50.718;4.630;2023-02-18T14:37:42;11.80;99.90
23873;DHT22;42884;50.718;4.630;2023-02-18T14:47:53;11.80;99.90
23873;DHT22;42884;50.718;4.630;2023-02-18T14:50:20;11.80;99.90
23873;DHT22;42884;50.718;4.630;2023-02-18T14:52:50;11.80;99.90
23873;DHT22;42884;50.718;4.630;2023-02-18T14:55:21;11.90;99.90
23873;DHT22;42884;50.718;4.630;2023-02-18T14:57:49;11.80;99.90
23873;DHT22;42884;50.718;4.630;2023-02-18T15:00:16;11.80;99.90
23873;DHT22;42884;50.718;4.630;2023-02-18T15:02:42;11.70;99.90
23873;DHT22;42884;50.718;4.630;2023-02-18T15:05:12;11.70;99.90
23873;DHT22;42884;50.718;4.630;2023-02-18T15:07:38;11.70;99.90
23873;DHT22;42884;50.718;4.630;2023-02-18T15:10:04;11.80;99.90
23873;DHT22;42884;50.718;4.630;2023-02-18T15:12:30;11.80;99.90
23873;DHT22;42884;50.718;4.630;2023-02-18T15:14:56;11.80;99.90
23873;DHT22;42884;50.718;4.630;2023-02-18T15:17:25;12.00;99.90
23873;DHT22;42884;50.718;4.630;2023-02-18T15:19:52;12.00;99.90
23873;DHT22;42884;50.718;4.630;2023-02-18T15:22:19;12.00;99.90
23873;DHT22;42884;50.718;4.630;2023-02-18T15:24:46;11.90;99.90
23873;DHT22;42884;50.718;4.630;2023-02-18T15:29:41;11.80;99.90
23873;DHT22;42884;50.718;4.630;2023-02-18T15:32:17;11.80;99.90
23873;DHT22;42884;50.718;4.630;2023-02-18T15:34:43;11.90;99.90
23873;DHT22;42884;50.718;4.630;2023-02-18T15:37:13;11.80;99.90
23873;DHT22;42884;50.718;4.630;2023-02-18T15:39:39;11.80;99.90
23873;DHT22;42884;50.718;4.630;2023-02-18T15:42:07;11.90;99.90
23873;DHT22;42884;50.718;4.630;2023-02-18T15:44:34;11.90;99.90
23873;DHT22;42884;50.718;4.630;2023-02-18T15:47:02;11.80;99.90
23873;DHT22;42884;50.718;4.630;2023-02-18T15:49:29;11.80;99.90
23873;DHT22;42884;50.718;4.630;2023-02-18T15:51:56;11.80;99.90
23873;DHT22;42884;50.718;4.630;2023-02-18T15:54:22;11.80;99.90
23873;DHT22;42884;50.718;4.630;2023-02-18T15:56:49;11.90;99.90
23873;DHT22;42884;50.718;4.630;2023-02-18T15:59:16;11.90;99.90
23873;DHT22;42884;50.718;4.630;2023-02-18T16:01:43;12.00;99.90
23873;DHT22;42884;50.718;4.630;2023-02-18T16:04:12;11.90;99.90
23873;DHT22;42884;50.718;4.630;2023-02-18T16:06:44;12.00;99.90
23873;DHT22;42884;50.718;4.630;2023-02-18T16:11:45;12.00;99.90
23873;DHT22;42884;50.718;4.630;2023-02-18T16:17:04;11.90;99.90
23873;DHT22;42884;50.718;4.630;2023-02-18T16:19:31;11.80;99.90
23873;DHT22;42884;50.718;4.630;2023-02-18T16:21:56;11.90;99.90
23873;DHT22;42884;50.718;4.630;2023-02-18T16:24:23;11.80;99.90
23873;DHT22;42884;50.718;4.630;2023-02-18T16:26:50;11.90;99.90
23873;DHT22;42884;50.718;4.630;2023-02-18T16:29:35;11.80;99.90
23873;DHT22;42884;50.718;4.630;2023-02-18T16:32:01;11.80;99.90
23873;DHT22;42884;50.718;4.630;2023-02-18T16:34:26;11.80;99.90
23873;DHT22;42884;50.718;4.630;2023-02-18T16:36:52;11.80;99.90
23873;DHT22;42884;50.718;4.630;2023-02-18T16:39:36;11.80;99.90
23873;DHT22;42884;50.718;4.630;2023-02-18T16:42:04;11.70;99.90
23873;DHT22;42884;50.718;4.630;2023-02-18T16:44:30;11.70;99.90
23873;DHT22;42884;50.718;4.630;2023-02-18T16:46:56;11.70;99.90
23873;DHT22;42884;50.718;4.630;2023-02-18T16:49:22;11.70;99.90
23873;DHT22;42884;50.718;4.630;2023-02-18T16:51:48;11.70;99.90
23873;DHT22;42884;50.718;4.630;2023-02-18T16:54:13;11.70;99.90
23873;DHT22;42884;50.718;4.630;2023-02-18T16:56:39;11.70;99.90
23873;DHT22;42884;50.718;4.630;2023-02-18T16:59:05;11.70;99.90
23873;DHT22;42884;50.718;4.630;2023-02-18T17:03:57;11.70;99.90
23873;DHT22;42884;50.718;4.630;2023-02-18T17:06:23;11.60;99.90
23873;DHT22;42884;50.718;4.630;2023-02-18T17:08:49;11.70;99.90
23873;DHT22;42884;50.718;4.630;2023-02-18T17:11:16;11.60;99.90
23873;DHT22;42884;50.718;4.630;2023-02-18T17:13:44;11.50;99.90
23873;DHT22;42884;50.718;4.630;2023-02-18T17:16:10;11.50;99.90
23873;DHT22;42884;50.718;4.630;2023-02-18T17:18:36;11.70;99.90
23873;DHT22;42884;50.718;4.630;2023-02-18T17:21:01;11.70;99.90
23873;DHT22;42884;50.718;4.630;2023-02-18T17:23:28;11.70;99.90
23873;DHT22;42884;50.718;4.630;2023-02-18T17:25:53;11.70;99.90
23873;DHT22;42884;50.718;4.630;2023-02-18T17:28:19;11.70;99.90
23873;DHT22;42884;50.718;4.630;2023-02-18T17:30:46;11.70;99.90
23873;DHT22;42884;50.718;4.630;2023-02-18T17:33:13;11.80;99.90
23873;DHT22;42884;50.718;4.630;2023-02-18T17:35:39;11.70;99.90
23873;DHT22;42884;50.718;4.630;2023-02-18T17:38:12;11.60;99.90
23873;DHT22;42884;50.718;4.630;2023-02-18T17:40:38;11.70;99.90
23873;DHT22;42884;50.718;4.630;2023-02-18T17:43:03;11.50;99.90
23873;DHT22;42884;50.718;4.630;2023-02-18T17:45:33;11.50;99.90
23873;DHT22;42884;50.718;4.630;2023-02-18T17:47:59;11.50;99.90
23873;DHT22;42884;50.718;4.630;2023-02-18T17:50:26;11.50;99.90
23873;DHT22;42884;50.718;4.630;2023-02-18T17:52:57;11.50;99.90
23873;DHT22;42884;50.718;4.630;2023-02-18T17:57:49;11.30;99.90
23873;DHT22;42884;50.718;4.630;2023-02-18T18:00:17;11.40;99.90
23873;DHT22;42884;50.718;4.630;2023-02-18T18:02:43;11.40;99.90
23873;DHT22;42884;50.718;4.630;2023-02-18T18:05:13;11.50;99.90